Molt, MT (59057)

1:28 PM MDT on August 22, 2014 (GMT -0600)
Billings Flying Mustangs | Change Station
CLOSE
Current Station
Personal Weather Station
Location: Billings, MT
Elevation: 3504 ft
Nearby Weather Stations

Elev 3504 ft 45.79 °N, 108.73 °W | Updated 21 seconds ago

Overcast
Overcast
62.9 °F
Feels Like 62.9 °F
N
9.2
Wind Variable Wind from North
Gusts 11.2 mph

Today
High -- | Low -- °F
--% Chance of Precip.
Yesterday
High -- | Low -- °F
Precip. -- in
6:23 AM 8:11 PM
Waning Crescent, 7% visible
Pressure 30.04 in
Visibility 2.0 miles
Clouds Scattered Clouds 400 ft
Mostly Cloudy 1500 ft
Overcast 8000 ft
Dew Point 55 °F
Humidity 76%
Rainfall 0.00 in
Snow Depth Not available.
UV 3 out of 12
Pollen 3.80 out of 12
Air Quality Not available.
Flu Activity Not available.
METAR KBIL 221853Z 04008KT 2SM -RA SCT004 BKN015 OVC080 15/14 A3007 RMK AO2 SFC VIS 7 SLP173 VIS LWR N-NE P0004 T01500139

More Conditions Fewer Conditions

Pressure 30.04 in
Visibility 2.0 miles
Clouds Scattered Clouds 400 ft
Mostly Cloudy 1500 ft
Overcast 8000 ft
Dew Point 55 °F
Humidity 76%
Rainfall 0.00 in
Snow Depth Not available.
UV 3 out of 12
Pollen 3.80 out of 12
Air Quality Not available.
Flu Activity Not available.
METAR KBIL 221853Z 04008KT 2SM -RA SCT004 BKN015 OVC080 15/14 A3007 RMK AO2 SFC VIS 7 SLP173 VIS LWR N-NE P0004 T01500139

More Conditions Fewer Conditions

10-Day Weather Forecast

Almanac

Astronomy

Aug. 22, 2014 Rise Set
Actual Time 6:23 AM MDT 8:11 PM MDT
Civil Twilight 5:52 AM MDT 8:43 PM MDT
Nautical Twilight 5:13 AM MDT 9:21 PM MDT
Astronomical Twilight 4:30 AM MDT 10:03 PM MDT
Moon 3:45 AM MDT 6:24 PM MDT
Length of Visible Light 14h 51m
Length of Day
13h 47m
Tomorrow will be 2m 59s shorter.
Waning Crescent, 7% of the Moon is Illuminated
Today
Waning Crescent
Aug 25
New
Sep 2
First Quarter
Sep 8
Full
Sep 15
Last Quarter

Today's Extremes

State Highs State Lows

Community

WunderPhotos

Upload Photos

1,746,224 photos uploaded!

Nearby

Snow Depth

Station Depth Elevation
Cole Creek 0 in 7850 ft
Burnt Mountain 0 in 5880 ft
Placer Basin 0 in 8830 ft
Crystal Lake 0 in 6050 ft
White Mill 2 in 8700 ft

Earthquake Activity

City Distance Mag. Time & Date
No recent earthquake activity has been reported nearby.
Minimum magnitude displayed is 2.5.

Coastal Water Temperatures

Place Temperature
No Stations Reporting

Nearby Weather Stations